sensor_id;sensor_type;location;lat;lon;timestamp;P1;P2;P0
43479;PMS5003;29067;35.492;-97.520;2022-12-29T00:02:01;4;3;
43479;PMS5003;29067;35.492;-97.520;2022-12-29T00:04:28;2;2;
43479;PMS5003;29067;35.492;-97.520;2022-12-29T00:06:56;3;2;
43479;PMS5003;29067;35.492;-97.520;2022-12-29T00:09:25;2;2;
43479;PMS5003;29067;35.492;-97.520;2022-12-29T00:11:53;2;2;
43479;PMS5003;29067;35.492;-97.520;2022-12-29T00:14:21;2;2;
43479;PMS5003;29067;35.492;-97.520;2022-12-29T00:16:49;3;3;
43479;PMS5003;29067;35.492;-97.520;2022-12-29T00:19:17;2;2;
43479;PMS5003;29067;35.492;-97.520;2022-12-29T00:21:51;3;2;
43479;PMS5003;29067;35.492;-97.520;2022-12-29T00:24:20;2;2;
43479;PMS5003;29067;35.492;-97.520;2022-12-29T00:26:49;2;2;
43479;PMS5003;29067;35.492;-97.520;2022-12-29T00:29:23;3;3;
43479;PMS5003;29067;35.492;-97.520;2022-12-29T00:31:51;3;3;
43479;PMS5003;29067;35.492;-97.520;2022-12-29T00:34:19;1;1;
43479;PMS5003;29067;35.492;-97.520;2022-12-29T00:36:46;4;2;
43479;PMS5003;29067;35.492;-97.520;2022-12-29T00:39:15;3;3;
43479;PMS5003;29067;35.492;-97.520;2022-12-29T00:41:45;3;3;
43479;PMS5003;29067;35.492;-97.520;2022-12-29T00:44:15;3;3;
43479;PMS5003;29067;35.492;-97.520;2022-12-29T00:46:42;2;2;
43479;PMS5003;29067;35.492;-97.520;2022-12-29T00:49:12;6;6;
43479;PMS5003;29067;35.492;-97.520;2022-12-29T00:51:40;8;8;
43479;PMS5003;29067;35.492;-97.520;2022-12-29T00:54:09;5;3;
43479;PMS5003;29067;35.492;-97.520;2022-12-29T00:56:37;9;9;
43479;PMS5003;29067;35.492;-97.520;2022-12-29T00:59:06;10;10;
43479;PMS5003;29067;35.492;-97.520;2022-12-29T01:01:36;20;20;
43479;PMS5003;29067;35.492;-97.520;2022-12-29T01:04:04;26;25;
43479;PMS5003;29067;35.492;-97.520;2022-12-29T01:06:33;19;19;
43479;PMS5003;29067;35.492;-97.520;2022-12-29T01:09:02;22;22;
43479;PMS5003;29067;35.492;-97.520;2022-12-29T01:11:32;24;23;
43479;PMS5003;29067;35.492;-97.520;2022-12-29T01:13:59;41;40;
43479;PMS5003;29067;35.492;-97.520;2022-12-29T01:16:27;38;37;
43479;PMS5003;29067;35.492;-97.520;2022-12-29T01:18:56;36;36;
43479;PMS5003;29067;35.492;-97.520;2022-12-29T01:21:24;3;3;
43479;PMS5003;29067;35.492;-97.520;2022-12-29T01:23:52;5;5;
43479;PMS5003;29067;35.492;-97.520;2022-12-29T01:26:21;10;10;
43479;PMS5003;29067;35.492;-97.520;2022-12-29T01:28:49;41;30;
43479;PMS5003;29067;35.492;-97.520;2022-12-29T01:31:17;43;39;
43479;PMS5003;29067;35.492;-97.520;2022-12-29T01:33:45;41;33;
43479;PMS5003;29067;35.492;-97.520;2022-12-29T01:36:14;19;17;
43479;PMS5003;29067;35.492;-97.520;2022-12-29T01:38:44;47;43;
43479;PMS5003;29067;35.492;-97.520;2022-12-29T01:41:13;25;23;
43479;PMS5003;29067;35.492;-97.520;2022-12-29T01:43:43;32;27;
43479;PMS5003;29067;35.492;-97.520;2022-12-29T01:46:18;39;37;
43479;PMS5003;29067;35.492;-97.520;2022-12-29T01:48:49;31;26;
43479;PMS5003;29067;35.492;-97.520;2022-12-29T01:51:27;12;8;
43479;PMS5003;29067;35.492;-97.520;2022-12-29T01:53:57;14;9;
43479;PMS5003;29067;35.492;-97.520;2022-12-29T01:56:30;13;9;
43479;PMS5003;29067;35.492;-97.520;2022-12-29T01:59:15;10;8;
43479;PMS5003;29067;35.492;-97.520;2022-12-29T02:01:47;29;23;
43479;PMS5003;29067;35.492;-97.520;2022-12-29T02:04:16;25;20;
43479;PMS5003;29067;35.492;-97.520;2022-12-29T02:06:46;52;52;
43479;PMS5003;29067;35.492;-97.520;2022-12-29T02:09:19;13;10;
43479;PMS5003;29067;35.492;-97.520;2022-12-29T02:11:50;29;27;
43479;PMS5003;29067;35.492;-97.520;2022-12-29T02:14:21;23;20;
43479;PMS5003;29067;35.492;-97.520;2022-12-29T02:16:55;24;19;
43479;PMS5003;29067;35.492;-97.520;2022-12-29T02:19:42;21;18;
43479;PMS5003;29067;35.492;-97.520;2022-12-29T02:22:30;9;7;
43479;PMS5003;29067;35.492;-97.520;2022-12-29T02:25:14;16;12;
43479;PMS5003;29067;35.492;-97.520;2022-12-29T02:28:04;9;6;
43479;PMS5003;29067;35.492;-97.520;2022-12-29T02:31:57;13;10;
43479;PMS5003;29067;35.492;-97.520;2022-12-29T02:34:33;9;5;
43479;PMS5003;29067;35.492;-97.520;2022-12-29T02:37:14;8;5;
43479;PMS5003;29067;35.492;-97.520;2022-12-29T02:39:51;10;6;
43479;PMS5003;29067;35.492;-97.520;2022-12-29T02:42:29;16;12;
43479;PMS5003;29067;35.492;-97.520;2022-12-29T02:45:13;11;6;
43479;PMS5003;29067;35.492;-97.520;2022-12-29T02:47:48;11;7;
43479;PMS5003;29067;35.492;-97.520;2022-12-29T02:50:25;15;11;
43479;PMS5003;29067;35.492;-97.520;2022-12-29T02:53:01;12;8;
43479;PMS5003;29067;35.492;-97.520;2022-12-29T02:55:32;11;7;
43479;PMS5003;29067;35.492;-97.520;2022-12-29T02:58:17;12;9;
43479;PMS5003;29067;35.492;-97.520;2022-12-29T03:01:03;22;19;
43479;PMS5003;29067;35.492;-97.520;2022-12-29T03:03:46;16;11;
43479;PMS5003;29067;35.492;-97.520;2022-12-29T03:06:29;25;19;
43479;PMS5003;29067;35.492;-97.520;2022-12-29T03:09:08;23;18;
43479;PMS5003;29067;35.492;-97.520;2022-12-29T03:11:45;28;26;
43479;PMS5003;29067;35.492;-97.520;2022-12-29T03:14:23;25;21;
43479;PMS5003;29067;35.492;-97.520;2022-12-29T03:16:59;29;24;
43479;PMS5003;29067;35.492;-97.520;2022-12-29T03:19:34;31;28;
43479;PMS5003;29067;35.492;-97.520;2022-12-29T03:22:05;27;24;
43479;PMS5003;29067;35.492;-97.520;2022-12-29T03:24:37;31;27;
43479;PMS5003;29067;35.492;-97.520;2022-12-29T03:27:10;30;27;
43479;PMS5003;29067;35.492;-97.520;2022-12-29T03:29:44;48;45;
43479;PMS5003;29067;35.492;-97.520;2022-12-29T03:32:17;63;59;
43479;PMS5003;29067;35.492;-97.520;2022-12-29T03:34:49;54;49;
43479;PMS5003;29067;35.492;-97.520;2022-12-29T03:37:18;48;45;
43479;PMS5003;29067;35.492;-97.520;2022-12-29T03:39:51;56;52;
43479;PMS5003;29067;35.492;-97.520;2022-12-29T03:42:21;48;45;
43479;PMS5003;29067;35.492;-97.520;2022-12-29T03:44:56;49;45;
43479;PMS5003;29067;35.492;-97.520;2022-12-29T03:47:24;51;47;
43479;PMS5003;29067;35.492;-97.520;2022-12-29T03:49:54;46;43;
43479;PMS5003;29067;35.492;-97.520;2022-12-29T03:52:22;16;12;
43479;PMS5003;29067;35.492;-97.520;2022-12-29T03:54:50;5;5;
43479;PMS5003;29067;35.492;-97.520;2022-12-29T03:57:19;7;5;
43479;PMS5003;29067;35.492;-97.520;2022-12-29T03:59:46;4;4;
43479;PMS5003;29067;35.492;-97.520;2022-12-29T04:02:14;5;5;
43479;PMS5003;29067;35.492;-97.520;2022-12-29T04:04:45;4;4;
43479;PMS5003;29067;35.492;-97.520;2022-12-29T04:07:12;6;5;
43479;PMS5003;29067;35.492;-97.520;2022-12-29T04:09:40;5;5;
43479;PMS5003;29067;35.492;-97.520;2022-12-29T04:12:08;6;4;
43479;PMS5003;29067;35.492;-97.520;2022-12-29T04:14:36;6;6;
43479;PMS5003;29067;35.492;-97.520;2022-12-29T04:17:04;6;5;
43479;PMS5003;29067;35.492;-97.520;2022-12-29T04:19:33;6;6;
43479;PMS5003;29067;35.492;-97.520;2022-12-29T04:22:02;5;5;
43479;PMS5003;29067;35.492;-97.520;2022-12-29T04:24:29;6;6;
43479;PMS5003;29067;35.492;-97.520;2022-12-29T04:26:57;6;6;
43479;PMS5003;29067;35.492;-97.520;2022-12-29T04:29:25;9;8;
43479;PMS5003;29067;35.492;-97.520;2022-12-29T04:31:53;7;7;
43479;PMS5003;29067;35.492;-97.520;2022-12-29T04:34:21;5;5;
43479;PMS5003;29067;35.492;-97.520;2022-12-29T04:36:49;7;6;
43479;PMS5003;29067;35.492;-97.520;2022-12-29T04:39:17;8;7;
43479;PMS5003;29067;35.492;-97.520;2022-12-29T04:41:44;6;6;
43479;PMS5003;29067;35.492;-97.520;2022-12-29T04:44:12;8;6;
43479;PMS5003;29067;35.492;-97.520;2022-12-29T04:46:40;6;6;
43479;PMS5003;29067;35.492;-97.520;2022-12-29T04:49:08;8;6;
43479;PMS5003;29067;35.492;-97.520;2022-12-29T04:51:35;4;4;
43479;PMS5003;29067;35.492;-97.520;2022-12-29T04:54:03;6;5;
43479;PMS5003;29067;35.492;-97.520;2022-12-29T04:56:31;7;7;
43479;PMS5003;29067;35.492;-97.520;2022-12-29T04:58:59;5;4;
43479;PMS5003;29067;35.492;-97.520;2022-12-29T05:01:27;5;5;
43479;PMS5003;29067;35.492;-97.520;2022-12-29T05:03:54;6;5;
43479;PMS5003;29067;35.492;-97.520;2022-12-29T05:06:22;7;7;
43479;PMS5003;29067;35.492;-97.520;2022-12-29T05:08:50;8;8;
43479;PMS5003;29067;35.492;-97.520;2022-12-29T05:11:18;10;8;
43479;PMS5003;29067;35.492;-97.520;2022-12-29T05:13:45;9;8;
43479;PMS5003;29067;35.492;-97.520;2022-12-29T05:16:14;6;5;
43479;PMS5003;29067;35.492;-97.520;2022-12-29T05:18:42;6;6;
43479;PMS5003;29067;35.492;-97.520;2022-12-29T05:21:10;6;6;
43479;PMS5003;29067;35.492;-97.520;2022-12-29T05:23:38;7;6;
43479;PMS5003;29067;35.492;-97.520;2022-12-29T05:26:06;6;6;
43479;PMS5003;29067;35.492;-97.520;2022-12-29T05:28:33;7;7;
43479;PMS5003;29067;35.492;-97.520;2022-12-29T05:31:01;6;6;
43479;PMS5003;29067;35.492;-97.520;2022-12-29T05:33:29;9;7;
43479;PMS5003;29067;35.492;-97.520;2022-12-29T05:35:57;6;6;
43479;PMS5003;29067;35.492;-97.520;2022-12-29T05:38:30;7;6;
43479;PMS5003;29067;35.492;-97.520;2022-12-29T05:40:58;5;5;
43479;PMS5003;29067;35.492;-97.520;2022-12-29T05:43:27;6;6;
43479;PMS5003;29067;35.492;-97.520;2022-12-29T05:45:55;5;4;
43479;PMS5003;29067;35.492;-97.520;2022-12-29T05:48:23;6;6;
43479;PMS5003;29067;35.492;-97.520;2022-12-29T05:50:51;7;6;
43479;PMS5003;29067;35.492;-97.520;2022-12-29T05:53:19;6;6;
43479;PMS5003;29067;35.492;-97.520;2022-12-29T05:55:47;7;7;
43479;PMS5003;29067;35.492;-97.520;2022-12-29T05:58:16;7;6;
43479;PMS5003;29067;35.492;-97.520;2022-12-29T06:00:44;6;5;
43479;PMS5003;29067;35.492;-97.520;2022-12-29T06:03:13;5;4;
43479;PMS5003;29067;35.492;-97.520;2022-12-29T06:05:41;6;6;
43479;PMS5003;29067;35.492;-97.520;2022-12-29T06:08:10;7;6;
43479;PMS5003;29067;35.492;-97.520;2022-12-29T06:10:39;6;5;
43479;PMS5003;29067;35.492;-97.520;2022-12-29T06:13:07;4;4;
43479;PMS5003;29067;35.492;-97.520;2022-12-29T06:15:35;6;6;
43479;PMS5003;29067;35.492;-97.520;2022-12-29T06:18:04;5;4;
43479;PMS5003;29067;35.492;-97.520;2022-12-29T06:20:32;6;6;
43479;PMS5003;29067;35.492;-97.520;2022-12-29T06:23:01;6;6;
43479;PMS5003;29067;35.492;-97.520;2022-12-29T06:25:29;4;4;
43479;PMS5003;29067;35.492;-97.520;2022-12-29T06:27:57;5;5;
43479;PMS5003;29067;35.492;-97.520;2022-12-29T06:30:24;5;5;
43479;PMS5003;29067;35.492;-97.520;2022-12-29T06:32:52;7;7;
43479;PMS5003;29067;35.492;-97.520;2022-12-29T06:35:20;5;5;
43479;PMS5003;29067;35.492;-97.520;2022-12-29T06:37:49;5;5;
43479;PMS5003;29067;35.492;-97.520;2022-12-29T06:40:17;6;6;
43479;PMS5003;29067;35.492;-97.520;2022-12-29T06:42:45;5;5;
43479;PMS5003;29067;35.492;-97.520;2022-12-29T06:45:13;6;5;
43479;PMS5003;29067;35.492;-97.520;2022-12-29T06:47:40;5;5;
43479;PMS5003;29067;35.492;-97.520;2022-12-29T06:50:08;5;5;
43479;PMS5003;29067;35.492;-97.520;2022-12-29T06:52:36;5;5;
43479;PMS5003;29067;35.492;-97.520;2022-12-29T06:55:04;5;4;
43479;PMS5003;29067;35.492;-97.520;2022-12-29T06:57:32;5;5;
43479;PMS5003;29067;35.492;-97.520;2022-12-29T07:00:00;5;5;
43479;PMS5003;29067;35.492;-97.520;2022-12-29T07:02:29;6;5;
43479;PMS5003;29067;35.492;-97.520;2022-12-29T07:04:56;4;4;
43479;PMS5003;29067;35.492;-97.520;2022-12-29T07:07:24;7;5;
43479;PMS5003;29067;35.492;-97.520;2022-12-29T07:09:52;5;5;
43479;PMS5003;29067;35.492;-97.520;2022-12-29T07:12:20;7;7;
43479;PMS5003;29067;35.492;-97.520;2022-12-29T07:14:48;6;5;
43479;PMS5003;29067;35.492;-97.520;2022-12-29T07:17:16;6;5;
43479;PMS5003;29067;35.492;-97.520;2022-12-29T07:19:45;6;5;
43479;PMS5003;29067;35.492;-97.520;2022-12-29T07:22:13;7;7;
43479;PMS5003;29067;35.492;-97.520;2022-12-29T07:24:41;7;5;
43479;PMS5003;29067;35.492;-97.520;2022-12-29T07:27:09;4;4;
43479;PMS5003;29067;35.492;-97.520;2022-12-29T07:29:37;6;5;
43479;PMS5003;29067;35.492;-97.520;2022-12-29T07:32:05;5;5;
43479;PMS5003;29067;35.492;-97.520;2022-12-29T07:34:32;5;5;
43479;PMS5003;29067;35.492;-97.520;2022-12-29T07:37:00;6;5;
43479;PMS5003;29067;35.492;-97.520;2022-12-29T07:39:28;4;4;
43479;PMS5003;29067;35.492;-97.520;2022-12-29T07:41:56;4;4;
43479;PMS5003;29067;35.492;-97.520;2022-12-29T07:44:23;6;5;
43479;PMS5003;29067;35.492;-97.520;2022-12-29T07:46:51;7;6;
43479;PMS5003;29067;35.492;-97.520;2022-12-29T07:49:19;7;6;
43479;PMS5003;29067;35.492;-97.520;2022-12-29T07:51:47;6;5;
43479;PMS5003;29067;35.492;-97.520;2022-12-29T07:54:14;5;5;
43479;PMS5003;29067;35.492;-97.520;2022-12-29T07:56:42;4;4;
43479;PMS5003;29067;35.492;-97.520;2022-12-29T07:59:11;6;6;
43479;PMS5003;29067;35.492;-97.520;2022-12-29T08:01:39;6;6;
43479;PMS5003;29067;35.492;-97.520;2022-12-29T08:04:06;6;6;
43479;PMS5003;29067;35.492;-97.520;2022-12-29T08:06:34;6;6;
43479;PMS5003;29067;35.492;-97.520;2022-12-29T08:09:02;7;7;
43479;PMS5003;29067;35.492;-97.520;2022-12-29T08:11:30;4;4;
43479;PMS5003;29067;35.492;-97.520;2022-12-29T08:13:57;5;5;
43479;PMS5003;29067;35.492;-97.520;2022-12-29T08:16:25;7;7;
43479;PMS5003;29067;35.492;-97.520;2022-12-29T08:18:53;7;6;
43479;PMS5003;29067;35.492;-97.520;2022-12-29T08:21:21;8;8;
43479;PMS5003;29067;35.492;-97.520;2022-12-29T08:23:49;6;6;
43479;PMS5003;29067;35.492;-97.520;2022-12-29T08:26:17;5;5;
43479;PMS5003;29067;35.492;-97.520;2022-12-29T08:28:45;7;7;
43479;PMS5003;29067;35.492;-97.520;2022-12-29T08:31:13;6;6;
43479;PMS5003;29067;35.492;-97.520;2022-12-29T08:33:41;7;7;
43479;PMS5003;29067;35.492;-97.520;2022-12-29T08:36:09;6;6;
43479;PMS5003;29067;35.492;-97.520;2022-12-29T08:38:38;6;6;
43479;PMS5003;29067;35.492;-97.520;2022-12-29T08:41:05;6;6;
43479;PMS5003;29067;35.492;-97.520;2022-12-29T08:43:34;7;7;
43479;PMS5003;29067;35.492;-97.520;2022-12-29T08:46:02;6;5;
43479;PMS5003;29067;35.492;-97.520;2022-12-29T08:48:30;5;5;
43479;PMS5003;29067;35.492;-97.520;2022-12-29T08:50:58;6;5;
43479;PMS5003;29067;35.492;-97.520;2022-12-29T08:53:26;4;4;
43479;PMS5003;29067;35.492;-97.520;2022-12-29T08:55:55;4;4;
43479;PMS5003;29067;35.492;-97.520;2022-12-29T08:58:24;4;4;
43479;PMS5003;29067;35.492;-97.520;2022-12-29T09:00:53;6;6;
43479;PMS5003;29067;35.492;-97.520;2022-12-29T09:03:22;5;5;
43479;PMS5003;29067;35.492;-97.520;2022-12-29T09:05:52;8;7;
43479;PMS5003;29067;35.492;-97.520;2022-12-29T09:08:21;4;4;
43479;PMS5003;29067;35.492;-97.520;2022-12-29T09:10:50;7;7;
43479;PMS5003;29067;35.492;-97.520;2022-12-29T09:13:18;5;4;
43479;PMS5003;29067;35.492;-97.520;2022-12-29T09:15:47;6;5;
43479;PMS5003;29067;35.492;-97.520;2022-12-29T09:18:15;5;5;
43479;PMS5003;29067;35.492;-97.520;2022-12-29T09:20:43;4;4;
43479;PMS5003;29067;35.492;-97.520;2022-12-29T09:23:12;5;5;
43479;PMS5003;29067;35.492;-97.520;2022-12-29T09:25:40;6;6;
43479;PMS5003;29067;35.492;-97.520;2022-12-29T09:28:07;5;5;
43479;PMS5003;29067;35.492;-97.520;2022-12-29T09:30:35;5;5;
43479;PMS5003;29067;35.492;-97.520;2022-12-29T09:33:04;5;4;
43479;PMS5003;29067;35.492;-97.520;2022-12-29T09:35:31;5;5;
43479;PMS5003;29067;35.492;-97.520;2022-12-29T09:37:59;6;5;
43479;PMS5003;29067;35.492;-97.520;2022-12-29T09:40:28;4;4;
43479;PMS5003;29067;35.492;-97.520;2022-12-29T09:43:04;6;5;
43479;PMS5003;29067;35.492;-97.520;2022-12-29T09:45:44;7;6;
43479;PMS5003;29067;35.492;-97.520;2022-12-29T09:48:17;11;6;
43479;PMS5003;29067;35.492;-97.520;2022-12-29T09:50:50;5;4;
43479;PMS5003;29067;35.492;-97.520;2022-12-29T09:53:24;9;6;
43479;PMS5003;29067;35.492;-97.520;2022-12-29T09:55:57;5;5;
43479;PMS5003;29067;35.492;-97.520;2022-12-29T09:58:29;4;4;
43479;PMS5003;29067;35.492;-97.520;2022-12-29T10:01:03;3;3;
43479;PMS5003;29067;35.492;-97.520;2022-12-29T10:03:36;7;6;
43479;PMS5003;29067;35.492;-97.520;2022-12-29T10:06:14;6;6;
43479;PMS5003;29067;35.492;-97.520;2022-12-29T10:08:54;6;5;
43479;PMS5003;29067;35.492;-97.520;2022-12-29T10:11:32;5;5;
43479;PMS5003;29067;35.492;-97.520;2022-12-29T10:14:15;5;5;
43479;PMS5003;29067;35.492;-97.520;2022-12-29T10:16:56;6;6;
43479;PMS5003;29067;35.492;-97.520;2022-12-29T10:19:36;6;5;
43479;PMS5003;29067;35.492;-97.520;2022-12-29T10:22:21;5;5;
43479;PMS5003;29067;35.492;-97.520;2022-12-29T10:24:59;6;6;
43479;PMS5003;29067;35.492;-97.520;2022-12-29T10:27:38;6;6;
43479;PMS5003;29067;35.492;-97.520;2022-12-29T10:30:10;7;6;
43479;PMS5003;29067;35.492;-97.520;2022-12-29T10:32:40;4;4;
43479;PMS5003;29067;35.492;-97.520;2022-12-29T10:35:14;6;6;
43479;PMS5003;29067;35.492;-97.520;2022-12-29T10:37:45;5;5;
43479;PMS5003;29067;35.492;-97.520;2022-12-29T10:40:24;6;5;
43479;PMS5003;29067;35.492;-97.520;2022-12-29T10:42:56;5;4;
43479;PMS5003;29067;35.492;-97.520;2022-12-29T10:45:27;7;6;
43479;PMS5003;29067;35.492;-97.520;2022-12-29T10:47:58;4;4;
43479;PMS5003;29067;35.492;-97.520;2022-12-29T10:50:30;5;5;
43479;PMS5003;29067;35.492;-97.520;2022-12-29T10:52:59;5;5;
43479;PMS5003;29067;35.492;-97.520;2022-12-29T10:55:32;6;6;
43479;PMS5003;29067;35.492;-97.520;2022-12-29T10:58:04;5;5;
43479;PMS5003;29067;35.492;-97.520;2022-12-29T11:00:33;6;5;
43479;PMS5003;29067;35.492;-97.520;2022-12-29T11:03:07;4;4;
43479;PMS5003;29067;35.492;-97.520;2022-12-29T11:05:45;6;5;
43479;PMS5003;29067;35.492;-97.520;2022-12-29T11:08:19;4;4;
43479;PMS5003;29067;35.492;-97.520;2022-12-29T11:10:57;6;6;
43479;PMS5003;29067;35.492;-97.520;2022-12-29T11:13:28;7;5;
43479;PMS5003;29067;35.492;-97.520;2022-12-29T11:15:57;5;5;
43479;PMS5003;29067;35.492;-97.520;2022-12-29T11:18:26;4;4;
43479;PMS5003;29067;35.492;-97.520;2022-12-29T11:20:59;7;7;
43479;PMS5003;29067;35.492;-97.520;2022-12-29T11:23:30;5;4;
43479;PMS5003;29067;35.492;-97.520;2022-12-29T11:26:07;5;5;
43479;PMS5003;29067;35.492;-97.520;2022-12-29T11:28:42;5;4;
43479;PMS5003;29067;35.492;-97.520;2022-12-29T11:31:15;9;7;
43479;PMS5003;29067;35.492;-97.520;2022-12-29T11:33:44;5;5;
43479;PMS5003;29067;35.492;-97.520;2022-12-29T11:36:13;7;7;
43479;PMS5003;29067;35.492;-97.520;2022-12-29T11:38:46;6;5;
43479;PMS5003;29067;35.492;-97.520;2022-12-29T11:41:20;9;7;
43479;PMS5003;29067;35.492;-97.520;2022-12-29T11:43:51;8;7;
43479;PMS5003;29067;35.492;-97.520;2022-12-29T11:46:22;6;6;
43479;PMS5003;29067;35.492;-97.520;2022-12-29T11:48:54;6;6;
43479;PMS5003;29067;35.492;-97.520;2022-12-29T11:51:25;5;4;
43479;PMS5003;29067;35.492;-97.520;2022-12-29T11:53:56;5;5;
43479;PMS5003;29067;35.492;-97.520;2022-12-29T11:56:35;6;6;
43479;PMS5003;29067;35.492;-97.520;2022-12-29T11:59:24;8;7;
43479;PMS5003;29067;35.492;-97.520;2022-12-29T12:03:00;7;7;
43479;PMS5003;29067;35.492;-97.520;2022-12-29T12:05:35;12;11;
43479;PMS5003;29067;35.492;-97.520;2022-12-29T12:08:10;19;18;
43479;PMS5003;29067;35.492;-97.520;2022-12-29T12:10:46;18;17;
43479;PMS5003;29067;35.492;-97.520;2022-12-29T12:13:19;16;15;
43479;PMS5003;29067;35.492;-97.520;2022-12-29T12:15:54;17;16;
43479;PMS5003;29067;35.492;-97.520;2022-12-29T12:18:32;18;18;
43479;PMS5003;29067;35.492;-97.520;2022-12-29T12:21:08;9;7;
43479;PMS5003;29067;35.492;-97.520;2022-12-29T12:23:46;21;15;
43479;PMS5003;29067;35.492;-97.520;2022-12-29T12:26:28;7;6;
43479;PMS5003;29067;35.492;-97.520;2022-12-29T12:29:04;8;6;
43479;PMS5003;29067;35.492;-97.520;2022-12-29T12:31:41;6;6;
43479;PMS5003;29067;35.492;-97.520;2022-12-29T12:34:16;6;6;
43479;PMS5003;29067;35.492;-97.520;2022-12-29T12:36:59;5;4;
43479;PMS5003;29067;35.492;-97.520;2022-12-29T12:39:45;6;5;
43479;PMS5003;29067;35.492;-97.520;2022-12-29T12:42:29;5;5;
43479;PMS5003;29067;35.492;-97.520;2022-12-29T12:45:21;6;5;
43479;PMS5003;29067;35.492;-97.520;2022-12-29T12:48:02;7;6;
43479;PMS5003;29067;35.492;-97.520;2022-12-29T12:50:45;6;5;
43479;PMS5003;29067;35.492;-97.520;2022-12-29T12:53:22;4;4;
43479;PMS5003;29067;35.492;-97.520;2022-12-29T12:56:06;5;5;
43479;PMS5003;29067;35.492;-97.520;2022-12-29T12:58:49;4;4;
43479;PMS5003;29067;35.492;-97.520;2022-12-29T13:01:27;4;4;
43479;PMS5003;29067;35.492;-97.520;2022-12-29T13:04:12;5;5;
43479;PMS5003;29067;35.492;-97.520;2022-12-29T13:07:12;5;5;
43479;PMS5003;29067;35.492;-97.520;2022-12-29T13:09:50;6;5;
43479;PMS5003;29067;35.492;-97.520;2022-12-29T13:12:32;4;4;
43479;PMS5003;29067;35.492;-97.520;2022-12-29T13:15:11;5;5;
43479;PMS5003;29067;35.492;-97.520;2022-12-29T13:17:49;4;4;
43479;PMS5003;29067;35.492;-97.520;2022-12-29T13:20:27;7;7;
43479;PMS5003;29067;35.492;-97.520;2022-12-29T13:23:12;6;5;
43479;PMS5003;29067;35.492;-97.520;2022-12-29T13:25:50;6;4;
43479;PMS5003;29067;35.492;-97.520;2022-12-29T13:28:25;3;3;
43479;PMS5003;29067;35.492;-97.520;2022-12-29T13:30:59;5;5;
43479;PMS5003;29067;35.492;-97.520;2022-12-29T13:33:38;4;4;
43479;PMS5003;29067;35.492;-97.520;2022-12-29T13:36:18;4;3;
43479;PMS5003;29067;35.492;-97.520;2022-12-29T13:38:51;5;4;
43479;PMS5003;29067;35.492;-97.520;2022-12-29T13:41:29;5;5;
43479;PMS5003;29067;35.492;-97.520;2022-12-29T13:44:01;4;4;
43479;PMS5003;29067;35.492;-97.520;2022-12-29T13:46:33;3;3;
43479;PMS5003;29067;35.492;-97.520;2022-12-29T13:49:06;3;3;
43479;PMS5003;29067;35.492;-97.520;2022-12-29T13:51:41;6;5;
43479;PMS5003;29067;35.492;-97.520;2022-12-29T13:54:21;3;3;
43479;PMS5003;29067;35.492;-97.520;2022-12-29T13:57:01;3;3;
43479;PMS5003;29067;35.492;-97.520;2022-12-29T13:59:37;5;5;
43479;PMS5003;29067;35.492;-97.520;2022-12-29T14:02:15;5;5;
43479;PMS5003;29067;35.492;-97.520;2022-12-29T14:04:57;6;5;
43479;PMS5003;29067;35.492;-97.520;2022-12-29T14:07:27;5;5;
43479;PMS5003;29067;35.492;-97.520;2022-12-29T14:09:57;6;6;
43479;PMS5003;29067;35.492;-97.520;2022-12-29T14:12:30;6;5;
43479;PMS5003;29067;35.492;-97.520;2022-12-29T14:15:03;4;4;
43479;PMS5003;29067;35.492;-97.520;2022-12-29T14:17:33;4;4;
43479;PMS5003;29067;35.492;-97.520;2022-12-29T14:20:01;5;4;
43479;PMS5003;29067;35.492;-97.520;2022-12-29T14:22:30;4;4;
43479;PMS5003;29067;35.492;-97.520;2022-12-29T14:24:58;5;4;
43479;PMS5003;29067;35.492;-97.520;2022-12-29T14:27:58;5;5;
43479;PMS5003;29067;35.492;-97.520;2022-12-29T14:30:46;4;4;
43479;PMS5003;29067;35.492;-97.520;2022-12-29T14:33:16;5;4;
43479;PMS5003;29067;35.492;-97.520;2022-12-29T14:35:45;6;6;
43479;PMS5003;29067;35.492;-97.520;2022-12-29T14:38:16;5;5;
43479;PMS5003;29067;35.492;-97.520;2022-12-29T14:40:48;5;4;
43479;PMS5003;29067;35.492;-97.520;2022-12-29T14:43:20;6;5;
43479;PMS5003;29067;35.492;-97.520;2022-12-29T14:45:52;6;6;
43479;PMS5003;29067;35.492;-97.520;2022-12-29T14:48:29;7;5;
43479;PMS5003;29067;35.492;-97.520;2022-12-29T14:51:01;4;4;
43479;PMS5003;29067;35.492;-97.520;2022-12-29T14:53:43;4;4;
43479;PMS5003;29067;35.492;-97.520;2022-12-29T14:56:13;6;5;
43479;PMS5003;29067;35.492;-97.520;2022-12-29T14:58:46;7;5;
43479;PMS5003;29067;35.492;-97.520;2022-12-29T15:01:19;7;5;
43479;PMS5003;29067;35.492;-97.520;2022-12-29T15:03:53;5;5;
43479;PMS5003;29067;35.492;-97.520;2022-12-29T15:06:24;4;4;
43479;PMS5003;29067;35.492;-97.520;2022-12-29T15:08:58;6;5;
43479;PMS5003;29067;35.492;-97.520;2022-12-29T15:11:41;5;5;
43479;PMS5003;29067;35.492;-97.520;2022-12-29T15:14:31;18;18;
43479;PMS5003;29067;35.492;-97.520;2022-12-29T15:17:08;7;7;
43479;PMS5003;29067;35.492;-97.520;2022-12-29T15:19:47;5;5;
43479;PMS5003;29067;35.492;-97.520;2022-12-29T15:22:16;8;7;
43479;PMS5003;29067;35.492;-97.520;2022-12-29T15:24:44;6;5;
43479;PMS5003;29067;35.492;-97.520;2022-12-29T15:27:13;3;3;
43479;PMS5003;29067;35.492;-97.520;2022-12-29T15:29:43;6;4;
43479;PMS5003;29067;35.492;-97.520;2022-12-29T15:32:18;5;5;
43479;PMS5003;29067;35.492;-97.520;2022-12-29T15:34:49;6;4;
43479;PMS5003;29067;35.492;-97.520;2022-12-29T15:37:18;3;3;
43479;PMS5003;29067;35.492;-97.520;2022-12-29T15:39:48;3;3;
43479;PMS5003;29067;35.492;-97.520;2022-12-29T15:42:22;3;3;
43479;PMS5003;29067;35.492;-97.520;2022-12-29T15:45:00;5;3;
43479;PMS5003;29067;35.492;-97.520;2022-12-29T15:47:31;3;3;
43479;PMS5003;29067;35.492;-97.520;2022-12-29T15:50:02;3;3;
43479;PMS5003;29067;35.492;-97.520;2022-12-29T15:52:33;4;4;
43479;PMS5003;29067;35.492;-97.520;2022-12-29T15:55:02;3;3;
43479;PMS5003;29067;35.492;-97.520;2022-12-29T15:57:36;4;4;
43479;PMS5003;29067;35.492;-97.520;2022-12-29T16:00:21;4;3;
43479;PMS5003;29067;35.492;-97.520;2022-12-29T16:02:50;3;3;
43479;PMS5003;29067;35.492;-97.520;2022-12-29T16:05:20;3;3;
43479;PMS5003;29067;35.492;-97.520;2022-12-29T16:07:52;5;4;
43479;PMS5003;29067;35.492;-97.520;2022-12-29T16:10:26;3;3;
43479;PMS5003;29067;35.492;-97.520;2022-12-29T16:13:04;2;1;
43479;PMS5003;29067;35.492;-97.520;2022-12-29T16:15:44;4;3;
43479;PMS5003;29067;35.492;-97.520;2022-12-29T16:18:18;4;3;
43479;PMS5003;29067;35.492;-97.520;2022-12-29T16:20:50;2;2;
43479;PMS5003;29067;35.492;-97.520;2022-12-29T16:23:22;3;3;
43479;PMS5003;29067;35.492;-97.520;2022-12-29T16:25:53;3;2;
43479;PMS5003;29067;35.492;-97.520;2022-12-29T16:28:34;3;2;
43479;PMS5003;29067;35.492;-97.520;2022-12-29T16:31:15;3;2;
43479;PMS5003;29067;35.492;-97.520;2022-12-29T16:33:49;3;2;
43479;PMS5003;29067;35.492;-97.520;2022-12-29T16:36:21;5;3;
43479;PMS5003;29067;35.492;-97.520;2022-12-29T16:38:51;2;2;
43479;PMS5003;29067;35.492;-97.520;2022-12-29T16:41:47;3;3;
43479;PMS5003;29067;35.492;-97.520;2022-12-29T16:44:16;3;2;
43479;PMS5003;29067;35.492;-97.520;2022-12-29T16:47:19;6;2;